Time;durP1;ratioP1;P1;durP2;ratioP2;P2;SDS_P1;SDS_P2;PMS_P1;PMS_P2;Temp;Humidity;BMP_temperature;BMP_pressure;BME280_temperature;BME280_humidity;BME280_pressure;Samples;Min_cycle;Max_cycle;Signal;HPM_P1;HPM_P2
2021/04/24 00:00:28;;;;;;;13.63;6.50;;;;;;;;;;5044808;28;20051;-63
2021/04/24 00:02:54;;;;;;;21.80;7.60;;;;;;;;;;5047351;28;20016;-63
2021/04/24 00:05:23;;;;;;;22.90;6.95;;;;;;;;;;5047695;28;20488;-65
2021/04/24 00:07:49;;;;;;;21.88;7.45;;;;;;;;;;5046737;28;20025;-64
2021/04/24 00:10:15;;;;;;;20.00;6.25;;;;;;;;;;5047747;28;20032;-65
2021/04/24 00:12:41;;;;;;;17.85;7.78;;;;;;;;;;5042853;28;20025;-62
2021/04/24 00:15:07;;;;;;;17.92;7.22;;;;;;;;;;5045472;28;20377;-66
2021/04/24 00:17:32;;;;;;;15.75;7.00;;;;;;;;;;5048391;28;20473;-64
2021/04/24 00:19:57;;;;;;;19.85;6.28;;;;;;;;;;5047791;28;20021;-65
2021/04/24 00:22:22;;;;;;;20.10;6.57;;;;;;;;;;5047456;28;20021;-65
2021/04/24 00:24:48;;;;;;;19.40;7.30;;;;;;;;;;5048150;28;20341;-65
2021/04/24 00:27:13;;;;;;;17.27;7.43;;;;;;;;;;5047381;28;20358;-65
2021/04/24 00:29:38;;;;;;;13.18;6.18;;;;;;;;;;5080739;23;20868;-63
2021/04/24 00:32:03;;;;;;;21.50;7.45;;;;;;;;;;5069052;28;20024;-64
2021/04/24 00:34:28;;;;;;;21.02;7.43;;;;;;;;;;5066058;28;20053;-65
2021/04/24 00:36:54;;;;;;;16.47;6.57;;;;;;;;;;5063734;28;20017;-63
2021/04/24 00:39:19;;;;;;;19.03;7.60;;;;;;;;;;5069592;28;20791;-63
2021/04/24 00:41:44;;;;;;;16.55;7.68;;;;;;;;;;5069476;28;20263;-63
2021/04/24 00:44:09;;;;;;;19.35;7.43;;;;;;;;;;5070782;28;20051;-62
2021/04/24 00:46:35;;;;;;;17.60;7.13;;;;;;;;;;5071265;28;20384;-63
2021/04/24 00:49:00;;;;;;;20.67;7.40;;;;;;;;;;5068748;28;20027;-64
2021/04/24 00:51:25;;;;;;;13.13;6.20;;;;;;;;;;5067957;28;20130;-62
2021/04/24 00:53:51;;;;;;;15.77;7.03;;;;;;;;;;5068500;28;20262;-62
2021/04/24 00:56:16;;;;;;;17.13;6.28;;;;;;;;;;5068237;28;20163;-63
2021/04/24 00:58:41;;;;;;;20.85;7.20;;;;;;;;;;5064907;28;20435;-63
2021/04/24 01:01:06;;;;;;;16.95;6.50;;;;;;;;;;5064579;28;20024;-62
2021/04/24 01:03:31;;;;;;;19.58;6.95;;;;;;;;;;5068096;28;20019;-63
2021/04/24 01:05:57;;;;;;;20.20;7.15;;;;;;;;;;5063339;28;20032;-63
2021/04/24 01:08:22;;;;;;;21.77;7.85;;;;;;;;;;5051757;28;20032;-63
2021/04/24 01:10:47;;;;;;;18.55;7.45;;;;;;;;;;5065856;28;20496;-63
2021/04/24 01:13:13;;;;;;;15.40;7.53;;;;;;;;;;5067076;28;20115;-63
2021/04/24 01:15:39;;;;;;;20.08;7.25;;;;;;;;;;5070137;28;20324;-63
2021/04/24 01:18:05;;;;;;;22.02;7.78;;;;;;;;;;5062074;28;20424;-64
2021/04/24 01:20:31;;;;;;;21.35;7.82;;;;;;;;;;5061242;28;20111;-63
2021/04/24 01:22:56;;;;;;;20.38;7.63;;;;;;;;;;5066975;28;20460;-64
2021/04/24 01:25:23;;;;;;;22.40;7.88;;;;;;;;;;5065404;28;20016;-62
2021/04/24 01:27:49;;;;;;;19.90;7.43;;;;;;;;;;5061400;28;20044;-63
2021/04/24 01:30:15;;;;;;;20.73;7.78;;;;;;;;;;5069320;28;20066;-63
2021/04/24 01:32:40;;;;;;;21.70;7.88;;;;;;;;;;5062873;28;20016;-63
2021/04/24 01:35:10;;;;;;;17.35;7.47;;;;;;;;;;5066615;28;20473;-63
2021/04/24 01:37:35;;;;;;;20.10;7.35;;;;;;;;;;5063976;28;20040;-62
2021/04/24 01:40:00;;;;;;;17.53;7.27;;;;;;;;;;5069951;28;20017;-62
2021/04/24 01:42:25;;;;;;;14.23;6.40;;;;;;;;;;5061362;28;20754;-63
2021/04/24 01:44:50;;;;;;;14.10;6.17;;;;;;;;;;5062341;28;20400;-63
2021/04/24 01:47:15;;;;;;;18.88;7.75;;;;;;;;;;5069065;28;20305;-63
2021/04/24 01:49:41;;;;;;;19.95;6.35;;;;;;;;;;5068360;28;20028;-63
2021/04/24 01:52:06;;;;;;;19.85;7.25;;;;;;;;;;5070438;28;20029;-63
2021/04/24 01:54:31;;;;;;;19.57;6.60;;;;;;;;;;5062974;28;20063;-63
2021/04/24 01:56:57;;;;;;;20.65;7.32;;;;;;;;;;5067947;28;20267;-64
2021/04/24 01:59:25;;;;;;;16.13;7.40;;;;;;;;;;5054296;28;20052;-63
2021/04/24 02:01:52;;;;;;;20.38;7.40;;;;;;;;;;5062130;28;20052;-63
2021/04/24 02:04:17;;;;;;;16.25;7.03;;;;;;;;;;5067565;28;20029;-63
2021/04/24 02:06:43;;;;;;;18.92;7.10;;;;;;;;;;5065134;28;20024;-63
2021/04/24 02:09:09;;;;;;;21.35;7.93;;;;;;;;;;5062325;28;20102;-63
2021/04/24 02:11:34;;;;;;;27.85;8.52;;;;;;;;;;5059615;28;20029;-63
2021/04/24 02:13:59;;;;;;;16.63;7.30;;;;;;;;;;5060246;28;20276;-63
2021/04/24 02:16:24;;;;;;;24.83;9.27;;;;;;;;;;5058034;28;20037;-64
2021/04/24 02:18:50;;;;;;;18.00;6.60;;;;;;;;;;5067494;28;20024;-63
2021/04/24 02:21:15;;;;;;;26.92;8.02;;;;;;;;;;5057682;28;20461;-63
2021/04/24 02:23:40;;;;;;;24.35;7.13;;;;;;;;;;5066499;28;20127;-63
2021/04/24 02:26:07;;;;;;;22.77;8.07;;;;;;;;;;5065375;28;20013;-63
2021/04/24 02:28:32;;;;;;;21.40;7.15;;;;;;;;;;5064098;28;20411;-63
2021/04/24 02:30:57;;;;;;;18.35;6.25;;;;;;;;;;5054733;28;20061;-63
2021/04/24 02:33:23;;;;;;;16.48;6.65;;;;;;;;;;5066697;28;20008;-63
2021/04/24 02:35:55;;;;;;;19.42;7.55;;;;;;;;;;5061634;28;20019;-63
2021/04/24 02:38:25;;;;;;;22.17;6.88;;;;;;;;;;5058961;28;20469;-64
2021/04/24 02:40:51;;;;;;;22.90;8.18;;;;;;;;;;5065940;28;20227;-64
2021/04/24 02:43:17;;;;;;;24.48;6.75;;;;;;;;;;5065812;28;20020;-64
2021/04/24 02:45:42;;;;;;;18.80;6.63;;;;;;;;;;5063919;28;20070;-63
2021/04/24 02:48:08;;;;;;;17.30;6.80;;;;;;;;;;5068560;28;20048;-64
2021/04/24 02:50:33;;;;;;;15.25;5.88;;;;;;;;;;5067045;28;20016;-64
2021/04/24 02:52:58;;;;;;;14.80;6.30;;;;;;;;;;5069174;28;20024;-63
2021/04/24 02:55:24;;;;;;;14.95;5.03;;;;;;;;;;5057519;28;20040;-64
2021/04/24 02:57:49;;;;;;;19.17;6.35;;;;;;;;;;5066156;28;20040;-63
2021/04/24 03:00:16;;;;;;;15.40;6.22;;;;;;;;;;5063969;28;20055;-63
2021/04/24 03:02:41;;;;;;;22.48;6.20;;;;;;;;;;5059508;28;20021;-63
2021/04/24 03:05:07;;;;;;;12.63;5.90;;;;;;;;;;5061002;28;20024;-63
2021/04/24 03:07:32;;;;;;;35.95;6.88;;;;;;;;;;5064741;28;20032;-64
2021/04/24 03:09:57;;;;;;;17.60;7.23;;;;;;;;;;5065597;28;20170;-63
2021/04/24 03:12:23;;;;;;;14.90;6.30;;;;;;;;;;5063355;28;20281;-63
2021/04/24 03:14:48;;;;;;;17.90;6.90;;;;;;;;;;5062515;28;20694;-63
2021/04/24 03:17:13;;;;;;;18.30;6.53;;;;;;;;;;5067897;28;20055;-63
2021/04/24 03:19:38;;;;;;;18.63;6.75;;;;;;;;;;5067548;28;20044;-63
2021/04/24 03:22:03;;;;;;;19.20;7.63;;;;;;;;;;5063197;28;20017;-63
2021/04/24 03:24:28;;;;;;;20.27;6.97;;;;;;;;;;5055052;28;20036;-63
2021/04/24 03:26:54;;;;;;;16.48;7.30;;;;;;;;;;5064852;28;20263;-63
2021/04/24 03:29:19;;;;;;;29.65;8.65;;;;;;;;;;5065456;28;20389;-63
2021/04/24 03:31:44;;;;;;;17.60;7.78;;;;;;;;;;5065699;28;20025;-63
2021/04/24 03:34:10;;;;;;;21.17;7.90;;;;;;;;;;5064782;28;20480;-63
2021/04/24 03:36:35;;;;;;;27.88;7.05;;;;;;;;;;5065092;28;20493;-63
2021/04/24 03:39:00;;;;;;;18.93;7.07;;;;;;;;;;5065774;28;20373;-63
2021/04/24 03:41:25;;;;;;;18.33;7.60;;;;;;;;;;5057710;28;20271;-63
2021/04/24 03:43:51;;;;;;;19.08;8.20;;;;;;;;;;5056056;28;20461;-63
2021/04/24 03:46:16;;;;;;;16.73;7.25;;;;;;;;;;5058076;28;20075;-63
2021/04/24 03:48:41;;;;;;;24.30;7.50;;;;;;;;;;5065129;28;20066;-63
2021/04/24 03:51:06;;;;;;;24.00;7.25;;;;;;;;;;5062900;28;20263;-63
2021/04/24 03:53:31;;;;;;;21.90;7.32;;;;;;;;;;5064945;28;20013;-63
2021/04/24 03:55:56;;;;;;;23.70;8.23;;;;;;;;;;5057510;28;20493;-63
2021/04/24 03:58:22;;;;;;;19.83;6.72;;;;;;;;;;5067029;28;20258;-63
2021/04/24 04:00:47;;;;;;;21.60;7.45;;;;;;;;;;5065316;28;20017;-63
2021/04/24 04:03:12;;;;;;;20.90;7.50;;;;;;;;;;5066994;28;20020;-63
2021/04/24 04:05:39;;;;;;;16.08;5.70;;;;;;;;;;5061399;28;20073;-64
2021/04/24 04:08:04;;;;;;;16.25;6.00;;;;;;;;;;5065990;28;20016;-63
2021/04/24 04:10:30;;;;;;;21.10;7.25;;;;;;;;;;5058241;28;20012;-63
2021/04/24 04:12:55;;;;;;;18.70;6.57;;;;;;;;;;5065540;28;20103;-66
2021/04/24 04:15:21;;;;;;;23.17;6.43;;;;;;;;;;5068672;28;20416;-63
2021/04/24 04:17:53;;;;;;;19.00;6.88;;;;;;;;;;5062083;28;20052;-64
2021/04/24 04:20:18;;;;;;;14.50;6.43;;;;;;;;;;5066350;28;20103;-65
2021/04/24 04:22:43;;;;;;;15.95;6.30;;;;;;;;;;5070173;28;20095;-63
2021/04/24 04:25:09;;;;;;;17.95;6.70;;;;;;;;;;5071571;28;20038;-63
2021/04/24 04:27:34;;;;;;;20.83;6.53;;;;;;;;;;5067087;28;20024;-64
2021/04/24 04:30:00;;;;;;;13.75;6.43;;;;;;;;;;5062056;28;20029;-64
2021/04/24 04:32:25;;;;;;;25.93;6.20;;;;;;;;;;5071076;28;20078;-64
2021/04/24 04:34:50;;;;;;;22.98;6.68;;;;;;;;;;5071494;28;20285;-64
2021/04/24 04:37:15;;;;;;;17.77;6.00;;;;;;;;;;5055752;28;20025;-63
2021/04/24 04:39:40;;;;;;;14.02;6.15;;;;;;;;;;5070570;28;20013;-63
2021/04/24 04:42:06;;;;;;;24.65;8.38;;;;;;;;;;5069120;28;20016;-63
2021/04/24 04:44:31;;;;;;;17.05;5.95;;;;;;;;;;5066604;28;20025;-63
2021/04/24 04:46:56;;;;;;;20.92;6.68;;;;;;;;;;5062725;28;20020;-63
2021/04/24 04:49:22;;;;;;;16.63;5.90;;;;;;;;;;5070463;28;20097;-63
2021/04/24 04:51:47;;;;;;;26.77;7.40;;;;;;;;;;5069907;28;20584;-63
2021/04/24 04:54:12;;;;;;;22.13;6.50;;;;;;;;;;5070510;28;20113;-63
2021/04/24 04:56:37;;;;;;;15.60;6.25;;;;;;;;;;5071002;28;20273;-64
2021/04/24 04:59:03;;;;;;;22.40;5.57;;;;;;;;;;5064361;28;20828;-65
2021/04/24 05:01:28;;;;;;;18.70;6.53;;;;;;;;;;5065468;28;20040;-63
2021/04/24 05:03:53;;;;;;;16.40;6.63;;;;;;;;;;5064248;28;20021;-63
2021/04/24 05:06:18;;;;;;;17.80;6.45;;;;;;;;;;5068725;28;20432;-63
2021/04/24 05:08:43;;;;;;;17.90;6.60;;;;;;;;;;5060122;28;20278;-63
2021/04/24 05:11:08;;;;;;;17.15;5.95;;;;;;;;;;5069570;28;20621;-63
2021/04/24 05:13:34;;;;;;;23.98;6.68;;;;;;;;;;5065778;28;20013;-63
2021/04/24 05:15:59;;;;;;;22.63;6.78;;;;;;;;;;5062608;28;20341;-65
2021/04/24 05:18:25;;;;;;;13.43;6.13;;;;;;;;;;5068259;28;20021;-64
2021/04/24 05:20:50;;;;;;;16.70;6.47;;;;;;;;;;5066980;28;20445;-64
2021/04/24 05:23:15;;;;;;;12.57;5.80;;;;;;;;;;5070535;28;20024;-65
2021/04/24 05:25:41;;;;;;;16.77;5.93;;;;;;;;;;5065644;28;20023;-63
2021/04/24 05:28:06;;;;;;;19.02;6.60;;;;;;;;;;5069409;28;20013;-64
2021/04/24 05:30:31;;;;;;;19.73;6.38;;;;;;;;;;5069839;28;20028;-63
2021/04/24 05:32:58;;;;;;;19.45;6.10;;;;;;;;;;5070129;28;20275;-65
2021/04/24 05:35:23;;;;;;;23.70;7.55;;;;;;;;;;5065181;28;20028;-65
2021/04/24 05:37:48;;;;;;;23.00;6.35;;;;;;;;;;5065908;28;20534;-64
2021/04/24 05:40:14;;;;;;;19.27;6.28;;;;;;;;;;5066062;28;20028;-63
2021/04/24 05:42:39;;;;;;;22.25;7.65;;;;;;;;;;5067902;28;20047;-63
2021/04/24 05:45:10;;;;;;;17.40;5.80;;;;;;;;;;5072296;28;20027;-62
2021/04/24 05:47:36;;;;;;;17.55;6.47;;;;;;;;;;5063190;28;20020;-63
2021/04/24 05:50:02;;;;;;;24.45;6.95;;;;;;;;;;5064041;28;20465;-62
2021/04/24 05:52:27;;;;;;;20.58;6.18;;;;;;;;;;5070412;28;20032;-64
2021/04/24 05:54:52;;;;;;;24.07;6.47;;;;;;;;;;5074597;28;20031;-63
2021/04/24 05:57:17;;;;;;;16.40;5.70;;;;;;;;;;5070521;28;20800;-64
2021/04/24 05:59:43;;;;;;;20.10;6.37;;;;;;;;;;5063247;28;20282;-63
2021/04/24 06:02:08;;;;;;;23.35;6.63;;;;;;;;;;5067592;28;20271;-63
2021/04/24 06:04:33;;;;;;;17.08;6.45;;;;;;;;;;5062810;28;20029;-63
2021/04/24 06:07:00;;;;;;;20.98;7.10;;;;;;;;;;5063856;28;20028;-63
2021/04/24 06:09:25;;;;;;;18.55;6.05;;;;;;;;;;5063926;28;20025;-63
2021/04/24 06:11:50;;;;;;;13.63;5.00;;;;;;;;;;5063227;28;20032;-63
2021/04/24 06:14:16;;;;;;;20.63;5.40;;;;;;;;;;5069592;28;20028;-62
2021/04/24 06:16:41;;;;;;;15.40;5.10;;;;;;;;;;5070677;28;20377;-62
2021/04/24 06:19:06;;;;;;;18.20;5.82;;;;;;;;;;5059739;28;20013;-62
2021/04/24 06:21:31;;;;;;;14.97;4.93;;;;;;;;;;5064710;28;20029;-62
2021/04/24 06:23:56;;;;;;;16.27;5.38;;;;;;;;;;5059245;28;20281;-62
2021/04/24 06:26:22;;;;;;;16.70;5.25;;;;;;;;;;5059394;28;20036;-63
2021/04/24 06:28:47;;;;;;;16.85;5.45;;;;;;;;;;5073806;22;21575;-83
2021/04/24 06:31:12;;;;;;;14.52;4.93;;;;;;;;;;5060527;28;20059;-83
2021/04/24 06:33:37;;;;;;;12.98;5.35;;;;;;;;;;5051167;28;20693;-82
2021/04/24 06:36:03;;;;;;;15.05;5.90;;;;;;;;;;5028106;28;20062;-84
2021/04/24 06:38:28;;;;;;;13.40;5.45;;;;;;;;;;5028618;28;20048;-83
2021/04/24 06:40:54;;;;;;;17.13;4.22;;;;;;;;;;5029057;28;20035;-83
2021/04/24 06:43:19;;;;;;;23.70;5.32;;;;;;;;;;5030745;28;20116;-83
2021/04/24 06:45:44;;;;;;;14.27;4.60;;;;;;;;;;5030262;28;20032;-83
2021/04/24 06:48:09;;;;;;;11.02;4.43;;;;;;;;;;5060677;28;20045;-83
2021/04/24 06:50:36;;;;;;;19.83;4.80;;;;;;;;;;5041331;28;20021;-83
2021/04/24 06:53:01;;;;;;;14.82;5.18;;;;;;;;;;5031642;28;20017;-83
2021/04/24 06:55:26;;;;;;;10.40;4.07;;;;;;;;;;5030618;28;20039;-83
2021/04/24 06:57:51;;;;;;;14.20;5.00;;;;;;;;;;5029902;28;20492;-83
2021/04/24 07:00:17;;;;;;;12.13;4.50;;;;;;;;;;5033758;28;20021;-84
2021/04/24 07:02:42;;;;;;;15.77;4.30;;;;;;;;;;5021673;28;20275;-83
2021/04/24 07:05:10;;;;;;;13.25;5.75;;;;;;;;;;5031742;28;20030;-82
2021/04/24 07:07:35;;;;;;;7.80;4.20;;;;;;;;;;5049138;28;20021;-84
2021/04/24 07:10:00;;;;;;;14.82;4.43;;;;;;;;;;5031675;28;20024;-85
2021/04/24 07:12:26;;;;;;;17.88;5.95;;;;;;;;;;5046799;28;20032;-85
2021/04/24 07:14:51;;;;;;;9.23;4.20;;;;;;;;;;5049738;28;20447;-85
2021/04/24 07:17:16;;;;;;;16.25;4.43;;;;;;;;;;5031242;28;20017;-85
2021/04/24 07:19:41;;;;;;;9.13;3.67;;;;;;;;;;5044188;28;20029;-84
2021/04/24 07:22:06;;;;;;;9.60;4.60;;;;;;;;;;5023451;28;20021;-84
2021/04/24 07:24:33;;;;;;;10.45;4.47;;;;;;;;;;5030900;28;20075;-85
2021/04/24 07:26:58;;;;;;;16.00;4.05;;;;;;;;;;5049644;28;20084;-85
2021/04/24 07:29:23;;;;;;;12.98;4.15;;;;;;;;;;5045806;28;20021;-84
2021/04/24 07:31:49;;;;;;;9.45;3.67;;;;;;;;;;5031225;28;20020;-84
2021/04/24 07:34:14;;;;;;;9.02;3.95;;;;;;;;;;5024079;28;20067;-84
2021/04/24 07:36:39;;;;;;;9.40;4.18;;;;;;;;;;5035198;28;20021;-85
2021/04/24 07:39:05;;;;;;;12.93;4.05;;;;;;;;;;5027543;28;20192;-84
2021/04/24 07:41:56;;;;;;;12.90;5.00;;;;;;;;;;5048382;28;20040;-83
2021/04/24 07:44:27;;;;;;;6.20;3.25;;;;;;;;;;5016787;28;20033;-84
2021/04/24 07:46:53;;;;;;;8.63;3.55;;;;;;;;;;5041950;28;20064;-84
2021/04/24 07:49:19;;;;;;;12.80;3.88;;;;;;;;;;5030406;28;20083;-85
2021/04/24 07:51:44;;;;;;;7.88;3.35;;;;;;;;;;5032557;28;20469;-84
2021/04/24 07:54:14;;;;;;;7.45;3.55;;;;;;;;;;5056051;28;20036;-84
2021/04/24 07:56:40;;;;;;;5.90;3.10;;;;;;;;;;5035645;28;20021;-84
2021/04/24 07:59:08;;;;;;;7.65;3.10;;;;;;;;;;5027658;28;20072;-85
2021/04/24 08:01:34;;;;;;;6.55;3.05;;;;;;;;;;5028820;28;20083;-83
2021/04/24 08:04:00;;;;;;;6.20;3.25;;;;;;;;;;5024282;28;20025;-85
2021/04/24 08:06:25;;;;;;;12.73;4.22;;;;;;;;;;5044474;28;20096;-84
2021/04/24 08:08:50;;;;;;;11.90;3.55;;;;;;;;;;5025842;28;20047;-85
2021/04/24 08:11:16;;;;;;;6.80;3.57;;;;;;;;;;5022199;28;20359;-84
2021/04/24 08:13:41;;;;;;;8.02;3.58;;;;;;;;;;5032754;28;20270;-84
2021/04/24 08:16:06;;;;;;;7.93;4.03;;;;;;;;;;5025798;28;20025;-83
2021/04/24 08:18:31;;;;;;;8.00;3.92;;;;;;;;;;5035190;28;20028;-84
2021/04/24 08:20:57;;;;;;;11.13;3.30;;;;;;;;;;5031175;28;20059;-84
2021/04/24 08:23:22;;;;;;;7.03;2.60;;;;;;;;;;5048541;28;20013;-85
2021/04/24 08:25:47;;;;;;;7.28;3.00;;;;;;;;;;5037348;28;20264;-83
2021/04/24 08:28:12;;;;;;;7.67;4.17;;;;;;;;;;5039695;28;20045;-85
2021/04/24 08:30:37;;;;;;;6.00;3.50;;;;;;;;;;5048964;28;20295;-85
2021/04/24 08:33:05;;;;;;;9.13;4.40;;;;;;;;;;5027700;28;20024;-85
2021/04/24 08:35:30;;;;;;;10.02;3.28;;;;;;;;;;5028045;28;20294;-83
2021/04/24 08:37:55;;;;;;;7.05;3.53;;;;;;;;;;5030542;28;20081;-84
2021/04/24 08:40:20;;;;;;;9.07;4.50;;;;;;;;;;5046104;28;20025;-83
2021/04/24 08:42:48;;;;;;;10.20;4.97;;;;;;;;;;5042191;28;20934;-85
2021/04/24 08:45:18;;;;;;;12.15;4.03;;;;;;;;;;5024672;28;20049;-84
2021/04/24 08:47:45;;;;;;;13.38;4.57;;;;;;;;;;5022669;28;20020;-84
2021/04/24 08:50:11;;;;;;;15.88;5.05;;;;;;;;;;5030939;28;20033;-84
2021/04/24 08:52:36;;;;;;;10.43;5.15;;;;;;;;;;5032971;28;20104;-85
2021/04/24 08:55:02;;;;;;;10.50;4.50;;;;;;;;;;5016951;28;20116;-85
2021/04/24 08:57:28;;;;;;;11.10;4.50;;;;;;;;;;5013493;28;20030;-85
2021/04/24 08:59:53;;;;;;;10.05;4.78;;;;;;;;;;5017930;28;20306;-86
2021/04/24 09:02:18;;;;;;;10.53;5.00;;;;;;;;;;5042339;28;20231;-85
2021/04/24 09:04:43;;;;;;;8.27;4.22;;;;;;;;;;5040330;28;20671;-86
2021/04/24 09:07:09;;;;;;;12.13;5.73;;;;;;;;;;5020747;28;20033;-86
2021/04/24 09:09:34;;;;;;;11.45;4.88;;;;;;;;;;5026574;28;20302;-85
2021/04/24 09:12:02;;;;;;;10.60;4.93;;;;;;;;;;5018757;28;20114;-85
2021/04/24 09:14:28;;;;;;;6.60;3.53;;;;;;;;;;5039884;28;20108;-84
2021/04/24 09:16:54;;;;;;;12.27;4.93;;;;;;;;;;5024159;28;20468;-85
2021/04/24 09:19:25;;;;;;;12.13;5.35;;;;;;;;;;5048658;28;20074;-84
2021/04/24 09:22:10;;;;;;;9.48;4.47;;;;;;;;;;5053643;28;20048;-84
2021/04/24 09:24:35;;;;;;;7.43;4.60;;;;;;;;;;5043877;28;20026;-85
2021/04/24 09:27:01;;;;;;;8.52;4.32;;;;;;;;;;5048088;28;20039;-85
2021/04/24 09:29:29;;;;;;;12.98;4.70;;;;;;;;;;5026954;28;20036;-84
2021/04/24 09:32:13;;;;;;;12.20;3.97;;;;;;;;;;5036547;28;20052;-84
2021/04/24 09:34:38;;;;;;;12.02;4.65;;;;;;;;;;5028913;28;20100;-84
2021/04/24 09:37:04;;;;;;;11.05;3.97;;;;;;;;;;5048197;28;20105;-84
2021/04/24 09:39:29;;;;;;;11.15;3.88;;;;;;;;;;5026522;28;20031;-84
2021/04/24 09:41:54;;;;;;;6.90;4.00;;;;;;;;;;5037131;28;20103;-85
2021/04/24 09:44:24;;;;;;;8.10;4.22;;;;;;;;;;5022337;28;20128;-83
2021/04/24 09:46:53;;;;;;;8.68;4.10;;;;;;;;;;5027643;28;20021;-84
2021/04/24 09:49:22;;;;;;;13.93;5.10;;;;;;;;;;5047029;28;20063;-85
2021/04/24 09:51:49;;;;;;;9.20;4.60;;;;;;;;;;5031402;28;20028;-84
2021/04/24 09:54:15;;;;;;;9.07;4.50;;;;;;;;;;5026825;28;20036;-85
2021/04/24 09:56:41;;;;;;;9.27;4.50;;;;;;;;;;5036009;28;20370;-85
2021/04/24 09:59:09;;;;;;;10.10;4.32;;;;;;;;;;5047548;28;20079;-83
2021/04/24 10:01:38;;;;;;;8.95;4.57;;;;;;;;;;5024830;28;20033;-85
2021/04/24 10:04:03;;;;;;;12.02;4.25;;;;;;;;;;5021617;28;20027;-83
2021/04/24 10:06:39;;;;;;;11.38;6.05;;;;;;;;;;5031206;28;20112;-84
2021/04/24 10:09:15;;;;;;;13.25;5.13;;;;;;;;;;5030575;28;20032;-84
2021/04/24 10:11:41;;;;;;;14.98;6.07;;;;;;;;;;5048938;28;20055;-84
2021/04/24 10:14:06;;;;;;;8.45;4.88;;;;;;;;;;5039984;28;20014;-83
2021/04/24 10:16:41;;;;;;;14.88;4.03;;;;;;;;;;5011897;28;20392;-84
2021/04/24 10:19:08;;;;;;;14.82;4.50;;;;;;;;;;5027067;28;20071;-83
2021/04/24 10:21:33;;;;;;;10.15;4.35;;;;;;;;;;5047255;28;20525;-84
2021/04/24 10:23:59;;;;;;;10.13;4.88;;;;;;;;;;5029668;28;20048;-84
2021/04/24 10:26:27;;;;;;;8.15;4.07;;;;;;;;;;5020284;28;20029;-84
2021/04/24 10:28:54;;;;;;;8.50;4.30;;;;;;;;;;5029332;28;20032;-84
2021/04/24 10:31:19;;;;;;;10.60;4.55;;;;;;;;;;5030364;28;20496;-83
2021/04/24 10:33:45;;;;;;;10.32;5.15;;;;;;;;;;5048094;28;20031;-82
2021/04/24 10:36:10;;;;;;;13.15;4.57;;;;;;;;;;5029215;28;20028;-84
2021/04/24 10:38:35;;;;;;;11.93;4.57;;;;;;;;;;5047299;28;20024;-84
2021/04/24 10:41:03;;;;;;;9.07;4.07;;;;;;;;;;5029363;28;20025;-84
2021/04/24 10:43:28;;;;;;;14.07;4.20;;;;;;;;;;5027143;28;20029;-84
2021/04/24 10:45:53;;;;;;;11.55;4.47;;;;;;;;;;5021395;28;20327;-84
2021/04/24 10:48:26;;;;;;;10.75;3.88;;;;;;;;;;5009804;28;20065;-84
2021/04/24 10:50:51;;;;;;;7.60;3.28;;;;;;;;;;5024352;28;20025;-83
2021/04/24 10:53:28;;;;;;;9.07;4.05;;;;;;;;;;5028391;28;20036;-83
2021/04/24 10:55:55;;;;;;;6.95;4.00;;;;;;;;;;5041637;28;20024;-84
2021/04/24 10:58:21;;;;;;;8.98;3.80;;;;;;;;;;5015923;28;20553;-85
2021/04/24 11:00:48;;;;;;;10.07;4.20;;;;;;;;;;5022032;28;20397;-87
2021/04/24 11:03:32;;;;;;;7.72;4.10;;;;;;;;;;5013313;28;20482;-85
2021/04/24 11:06:06;;;;;;;10.18;4.22;;;;;;;;;;5016180;28;20036;-87
2021/04/24 11:08:31;;;;;;;12.63;4.15;;;;;;;;;;5027259;28;20039;-85
2021/04/24 11:11:02;;;;;;;10.27;4.13;;;;;;;;;;5027771;28;20127;-86
2021/04/24 11:13:29;;;;;;;9.32;4.38;;;;;;;;;;5027552;28;20830;-86
2021/04/24 11:15:54;;;;;;;10.18;4.65;;;;;;;;;;5027320;28;20200;-86
2021/04/24 11:18:27;;;;;;;10.50;4.68;;;;;;;;;;5044658;28;20428;-86
2021/04/24 11:20:52;;;;;;;11.13;4.32;;;;;;;;;;5045225;28;20016;-85
2021/04/24 11:23:29;;;;;;;7.88;3.92;;;;;;;;;;5041330;28;20553;-84
2021/04/24 11:25:55;;;;;;;8.68;4.03;;;;;;;;;;5040942;28;20398;-84
2021/04/24 11:28:21;;;;;;;9.15;4.28;;;;;;;;;;5025736;28;20114;-84
2021/04/24 11:30:59;;;;;;;13.63;4.10;;;;;;;;;;5011517;28;20033;-84
2021/04/24 11:33:39;;;;;;;13.82;4.45;;;;;;;;;;5011183;28;20027;-84
2021/04/24 11:36:16;;;;;;;8.50;4.03;;;;;;;;;;5031611;28;20021;-83
2021/04/24 11:39:00;;;;;;;8.35;3.92;;;;;;;;;;5038403;28;20025;-84
2021/04/24 11:41:32;;;;;;;12.45;4.55;;;;;;;;;;5024289;28;20028;-84
2021/04/24 11:43:57;;;;;;;10.82;4.70;;;;;;;;;;5029801;28;20540;-84
2021/04/24 11:46:36;;;;;;;8.20;4.53;;;;;;;;;;5033696;28;20083;-84
2021/04/24 11:49:01;;;;;;;10.15;5.00;;;;;;;;;;5028192;28;20044;-85
2021/04/24 11:51:31;;;;;;;10.93;4.30;;;;;;;;;;5022378;28;20022;-85
2021/04/24 11:53:57;;;;;;;8.40;4.32;;;;;;;;;;5021916;28;20045;-84
2021/04/24 11:56:22;;;;;;;9.00;4.65;;;;;;;;;;5025180;28;20031;-85
2021/04/24 11:58:48;;;;;;;12.05;4.40;;;;;;;;;;5031009;28;20112;-85
2021/04/24 12:01:18;;;;;;;6.68;4.28;;;;;;;;;;5047506;28;20070;-85
2021/04/24 12:03:43;;;;;;;7.05;3.80;;;;;;;;;;5024587;28;20025;-85
2021/04/24 12:06:08;;;;;;;9.98;4.10;;;;;;;;;;5027997;28;20060;-84
2021/04/24 12:08:33;;;;;;;10.40;4.17;;;;;;;;;;5022262;28;20025;-86
2021/04/24 12:10:58;;;;;;;8.32;4.07;;;;;;;;;;5047757;28;20370;-86
2021/04/24 12:13:24;;;;;;;7.35;3.70;;;;;;;;;;5056190;23;20044;-68
2021/04/24 12:15:51;;;;;;;8.55;4.13;;;;;;;;;;5076173;28;20028;-67
2021/04/24 12:18:17;;;;;;;9.45;3.83;;;;;;;;;;5089593;28;20012;-68
2021/04/24 12:20:45;;;;;;;6.07;3.70;;;;;;;;;;5071902;28;20529;-68
2021/04/24 12:23:12;;;;;;;10.65;4.50;;;;;;;;;;5052959;28;20635;-67
2021/04/24 12:25:38;;;;;;;9.95;4.60;;;;;;;;;;5065374;28;20039;-67
2021/04/24 12:28:07;;;;;;;11.77;5.63;;;;;;;;;;5068431;28;20686;-70
2021/04/24 12:30:34;;;;;;;6.63;3.88;;;;;;;;;;5064468;28;20532;-68
2021/04/24 12:33:06;;;;;;;6.72;3.53;;;;;;;;;;5067548;28;20384;-68
2021/04/24 12:35:33;;;;;;;8.32;4.43;;;;;;;;;;5068768;28;20037;-66
2021/04/24 12:38:03;;;;;;;7.00;3.95;;;;;;;;;;5067792;28;20407;-68
2021/04/24 12:40:29;;;;;;;;;;;;;;;;;;5071515;28;20028;-68
2021/04/24 12:43:00;;;;;;;9.10;3.60;;;;;;;;;;5070985;28;19916;-69
2021/04/24 12:45:25;;;;;;;15.07;4.63;;;;;;;;;;5071917;28;20017;-67
2021/04/24 12:47:52;;;;;;;7.47;4.00;;;;;;;;;;5072850;28;20024;-68
2021/04/24 12:50:19;;;;;;;8.25;4.50;;;;;;;;;;5071806;28;20468;-68
2021/04/24 12:52:49;;;;;;;7.28;3.80;;;;;;;;;;5067230;28;20017;-68
2021/04/24 12:55:14;;;;;;;8.03;4.10;;;;;;;;;;5069019;28;20067;-68
2021/04/24 12:57:50;;;;;;;10.70;4.03;;;;;;;;;;5065470;28;20262;-68
2021/04/24 13:00:15;;;;;;;6.43;4.43;;;;;;;;;;5071053;28;20107;-68
2021/04/24 13:02:40;;;;;;;9.20;3.92;;;;;;;;;;5072663;28;20112;-68
2021/04/24 13:05:07;;;;;;;7.20;4.32;;;;;;;;;;5071424;28;20025;-68
2021/04/24 13:07:33;;;;;;;7.40;3.50;;;;;;;;;;5072045;28;20073;-68
2021/04/24 13:09:58;;;;;;;11.60;3.78;;;;;;;;;;5067213;28;20021;-68
2021/04/24 13:12:23;;;;;;;13.30;3.80;;;;;;;;;;5042328;28;20033;-68
2021/04/24 13:14:50;;;;;;;13.00;3.58;;;;;;;;;;5058636;28;20025;-68
2021/04/24 13:17:17;;;;;;;11.43;3.95;;;;;;;;;;5068367;28;20108;-68
2021/04/24 13:19:50;;;;;;;6.88;3.53;;;;;;;;;;5070602;28;20043;-68
2021/04/24 13:22:30;;;;;;;8.60;4.18;;;;;;;;;;5071457;28;20029;-68
2021/04/24 13:24:56;;;;;;;10.30;3.47;;;;;;;;;;5072153;28;20024;-68
2021/04/24 13:27:24;;;;;;;7.70;3.57;;;;;;;;;;5072436;28;20103;-68
2021/04/24 13:29:49;;;;;;;10.25;3.70;;;;;;;;;;5071282;28;20251;-68
2021/04/24 13:32:15;;;;;;;8.82;4.18;;;;;;;;;;5071287;28;20047;-68
2021/04/24 13:34:44;;;;;;;6.07;3.40;;;;;;;;;;5070952;28;20025;-68
2021/04/24 13:37:23;;;;;;;8.32;3.78;;;;;;;;;;5071371;28;20251;-68
2021/04/24 13:39:59;;;;;;;5.55;3.20;;;;;;;;;;5062335;28;20059;-68
2021/04/24 13:42:26;;;;;;;8.18;3.78;;;;;;;;;;5064581;28;20025;-69
2021/04/24 13:45:04;;;;;;;8.80;3.60;;;;;;;;;;5065433;28;20024;-68
2021/04/24 13:47:30;;;;;;;11.13;3.53;;;;;;;;;;5060716;28;20020;-67
2021/04/24 13:49:55;;;;;;;6.15;3.47;;;;;;;;;;5069869;28;20020;-68
2021/04/24 13:52:20;;;;;;;6.50;3.20;;;;;;;;;;5071772;28;20055;-68
2021/04/24 13:54:46;;;;;;;10.18;3.80;;;;;;;;;;5050354;28;20043;-68
2021/04/24 13:57:12;;;;;;;7.70;3.90;;;;;;;;;;5068615;28;20089;-68
2021/04/24 13:59:37;;;;;;;7.00;3.53;;;;;;;;;;5064475;28;20472;-68
2021/04/24 14:02:02;;;;;;;8.20;3.50;;;;;;;;;;5068994;28;20036;-68
2021/04/24 14:04:27;;;;;;;9.77;3.60;;;;;;;;;;5067361;28;20035;-67
2021/04/24 14:06:52;;;;;;;10.80;3.72;;;;;;;;;;5081953;28;20259;-68
2021/04/24 14:09:18;;;;;;;10.97;4.20;;;;;;;;;;5069030;28;20036;-67
2021/04/24 14:11:43;;;;;;;7.47;3.67;;;;;;;;;;5071906;28;20258;-68
2021/04/24 14:14:08;;;;;;;6.73;3.77;;;;;;;;;;5069802;28;21852;-67
2021/04/24 14:16:35;;;;;;;8.90;4.00;;;;;;;;;;5066569;28;20310;-68
2021/04/24 14:19:00;;;;;;;12.65;4.63;;;;;;;;;;5069245;28;20388;-68
2021/04/24 14:21:25;;;;;;;7.77;3.80;;;;;;;;;;5057415;28;20029;-68
2021/04/24 14:23:51;;;;;;;9.80;4.50;;;;;;;;;;5068180;28;20275;-68
2021/04/24 14:26:16;;;;;;;11.82;4.35;;;;;;;;;;5062645;28;20127;-68
2021/04/24 14:28:42;;;;;;;9.32;4.28;;;;;;;;;;5069592;28;20054;-67